createdAt,value
2023-03-26T00:02:44.292Z,12.07
2023-03-26T00:05:49.511Z,11.92
2023-03-26T00:08:52.882Z,11.52
2023-03-26T00:11:55.692Z,11.67
2023-03-26T00:14:58.079Z,11.47
2023-03-26T00:18:03.301Z,11.46
2023-03-26T00:21:07.830Z,11.39
2023-03-26T00:24:15.416Z,11.41
2023-03-26T00:27:17.887Z,11.29
2023-03-26T00:30:20.455Z,11.39
2023-03-26T00:33:23.504Z,11.42
2023-03-26T00:36:27.138Z,11.19
2023-03-26T00:39:33.720Z,11.11
2023-03-26T00:42:36.487Z,11.30
2023-03-26T00:45:38.790Z,11.41
2023-03-26T00:48:45.811Z,11.47
2023-03-26T00:51:48.453Z,11.37
2023-03-26T00:54:54.541Z,11.36
2023-03-26T00:57:57.442Z,11.35
2023-03-26T01:01:06.657Z,11.55
2023-03-26T01:04:28.426Z,11.73
2023-03-26T01:07:31.661Z,11.41
2023-03-26T01:10:38.796Z,11.71
2023-03-26T01:13:47.684Z,11.88
2023-03-26T01:16:52.182Z,11.84
2023-03-26T01:20:13.239Z,11.74
2023-03-26T01:23:23.623Z,11.81
2023-03-26T01:26:31.919Z,11.76
2023-03-26T01:29:56.559Z,11.80
2023-03-26T01:33:04.928Z,11.71
2023-03-26T01:36:17.007Z,11.61
2023-03-26T01:39:32.824Z,11.36
2023-03-26T01:42:44.110Z,11.57
2023-03-26T01:45:48.029Z,11.48
2023-03-26T01:48:51.711Z,11.21
2023-03-26T01:51:56.530Z,11.19
2023-03-26T01:54:59.690Z,11.25
2023-03-26T01:58:17.943Z,11.44
2023-03-26T02:01:29.602Z,11.35
2023-03-26T02:04:53.858Z,11.34
2023-03-26T02:07:59.232Z,11.02
2023-03-26T02:11:11.438Z,11.12
2023-03-26T02:14:15.409Z,11.13
2023-03-26T02:17:19.214Z,11.17
2023-03-26T02:20:22.536Z,11.09
2023-03-26T02:23:29.746Z,11.06
2023-03-26T02:26:34.062Z,11.02
2023-03-26T02:29:47.766Z,11.15
2023-03-26T02:32:52.383Z,11.19
2023-03-26T02:35:59.657Z,11.35
2023-03-26T02:39:02.211Z,11.27
2023-03-26T02:42:07.736Z,11.30
2023-03-26T02:45:16.167Z,11.37
2023-03-26T02:48:36.890Z,11.37
2023-03-26T02:51:50.864Z,11.34
2023-03-26T02:55:01.008Z,11.27
2023-03-26T02:58:04.008Z,11.35
2023-03-26T03:01:11.222Z,11.31
2023-03-26T03:04:23.990Z,11.20
2023-03-26T03:07:26.499Z,11.28
2023-03-26T03:10:32.767Z,11.31
2023-03-26T03:13:48.372Z,11.25
2023-03-26T03:16:54.508Z,11.26
2023-03-26T03:19:58.046Z,11.19
2023-03-26T03:23:00.668Z,11.07
2023-03-26T03:26:04.023Z,10.98
2023-03-26T03:29:08.975Z,10.85
2023-03-26T03:32:11.478Z,10.79
2023-03-26T03:35:19.796Z,10.59
2023-03-26T03:38:25.431Z,10.60
2023-03-26T03:41:29.866Z,10.37
2023-03-26T03:44:32.478Z,10.44
2023-03-26T03:47:35.982Z,10.35
2023-03-26T03:50:38.565Z,10.16
2023-03-26T03:53:56.110Z,10.18
2023-03-26T03:57:18.938Z,10.18
2023-03-26T04:00:32.429Z,10.16
2023-03-26T04:03:54.867Z,10.00
2023-03-26T04:07:01.142Z,9.93
2023-03-26T04:10:23.671Z,9.83
2023-03-26T04:13:44.691Z,9.99
2023-03-26T04:17:16.209Z,10.00
2023-03-26T04:20:21.021Z,10.17
2023-03-26T04:23:26.706Z,10.13
2023-03-26T04:26:35.642Z,10.17
2023-03-26T04:29:47.195Z,10.22
2023-03-26T04:32:54.509Z,10.14
2023-03-26T04:36:01.738Z,10.20
2023-03-26T04:39:07.117Z,10.20
2023-03-26T04:42:28.800Z,10.15
2023-03-26T04:45:42.779Z,10.21
2023-03-26T04:48:45.322Z,10.12
2023-03-26T04:51:48.198Z,10.05
2023-03-26T04:55:38.802Z,10.16
2023-03-26T04:58:51.869Z,10.24
2023-03-26T05:01:54.685Z,10.28
2023-03-26T05:04:59.192Z,10.40
2023-03-26T05:08:05.780Z,10.63
2023-03-26T05:11:11.658Z,10.68
2023-03-26T05:14:14.345Z,10.62
2023-03-26T05:17:18.989Z,10.69
2023-03-26T05:20:26.467Z,10.81
2023-03-26T05:23:28.770Z,10.92
2023-03-26T05:26:45.162Z,11.16
2023-03-26T05:29:48.458Z,11.30
2023-03-26T05:32:52.005Z,11.17
2023-03-26T05:36:05.714Z,11.25
2023-03-26T05:39:08.965Z,11.42
2023-03-26T05:42:43.859Z,11.56
2023-03-26T05:46:02.547Z,11.80
2023-03-26T05:49:07.047Z,11.99
2023-03-26T05:52:15.238Z,11.95
2023-03-26T05:55:47.311Z,11.98
2023-03-26T05:59:08.065Z,11.95
2023-03-26T06:02:30.749Z,12.18
2023-03-26T06:05:51.691Z,12.23
2023-03-26T06:09:04.826Z,12.14
2023-03-26T06:12:08.533Z,12.41
2023-03-26T06:15:11.850Z,12.66
2023-03-26T06:18:28.241Z,12.60
2023-03-26T06:21:50.464Z,12.99
2023-03-26T06:24:58.820Z,13.23
2023-03-26T06:28:33.502Z,13.26
2023-03-26T06:31:54.428Z,13.50
2023-03-26T06:35:00.684Z,13.16
2023-03-26T06:38:03.812Z,13.69
2023-03-26T06:41:07.515Z,14.06
2023-03-26T06:44:28.131Z,14.62
2023-03-26T06:47:56.572Z,15.57
2023-03-26T06:51:15.955Z,16.07
2023-03-26T06:54:47.595Z,16.22
2023-03-26T06:58:11.333Z,16.25
2023-03-26T07:01:39.308Z,16.65
2023-03-26T07:05:00.402Z,16.54
2023-03-26T07:08:21.216Z,17.04
2023-03-26T07:11:42.127Z,16.91
2023-03-26T07:14:53.455Z,17.48
2023-03-26T07:18:22.060Z,17.66
2023-03-26T07:21:26.026Z,18.14
2023-03-26T07:24:30.114Z,18.92
2023-03-26T07:28:14.406Z,19.00
2023-03-26T07:31:42.641Z,18.71
2023-03-26T07:35:31.864Z,19.05
2023-03-26T07:39:12.613Z,18.39
2023-03-26T07:43:28.044Z,18.48
2023-03-26T07:46:53.351Z,18.07
2023-03-26T07:49:59.934Z,18.33
2023-03-26T07:53:21.813Z,18.65
2023-03-26T07:57:05.598Z,18.58
2023-03-26T08:00:22.260Z,18.22
2023-03-26T08:03:49.238Z,17.88
2023-03-26T08:07:55.536Z,17.07
2023-03-26T08:11:35.712Z,16.37
2023-03-26T08:15:01.180Z,16.36
2023-03-26T08:18:28.745Z,16.23
2023-03-26T08:21:38.137Z,15.89
2023-03-26T08:24:48.057Z,16.07
2023-03-26T08:28:16.666Z,16.18
2023-03-26T08:31:19.962Z,15.92
2023-03-26T08:34:22.283Z,16.06
2023-03-26T08:37:24.608Z,15.91
2023-03-26T08:40:48.146Z,15.81
2023-03-26T08:44:02.727Z,15.90
2023-03-26T08:47:17.149Z,15.88
2023-03-26T08:50:57.336Z,15.92
2023-03-26T08:54:08.508Z,15.89
2023-03-26T08:57:29.331Z,15.82
2023-03-26T09:01:01.783Z,15.99
2023-03-26T09:04:36.139Z,16.27
2023-03-26T09:07:57.204Z,16.32
2023-03-26T09:11:24.466Z,16.29
2023-03-26T09:14:54.593Z,16.60
2023-03-26T09:18:33.563Z,16.31
2023-03-26T09:21:57.639Z,16.91
2023-03-26T09:25:13.604Z,18.04
2023-03-26T09:28:20.785Z,18.26
2023-03-26T09:31:45.475Z,18.08
2023-03-26T09:35:00.388Z,18.46
2023-03-26T09:38:19.874Z,18.18
2023-03-26T09:41:34.562Z,18.39
2023-03-26T09:44:59.558Z,18.38
2023-03-26T09:48:20.317Z,18.95
2023-03-26T09:51:33.249Z,18.65
2023-03-26T09:54:39.321Z,17.51
2023-03-26T09:58:04.077Z,18.15
2023-03-26T10:01:25.213Z,19.08
2023-03-26T10:04:38.543Z,19.98
2023-03-26T10:08:04.284Z,19.49
2023-03-26T10:11:25.579Z,19.49
2023-03-26T10:14:50.078Z,18.68
2023-03-26T10:18:27.188Z,18.56
2023-03-26T10:21:51.033Z,18.11
2023-03-26T10:25:19.095Z,17.68
2023-03-26T10:28:44.764Z,16.65
2023-03-26T10:32:17.197Z,17.00
2023-03-26T10:35:26.608Z,16.33
2023-03-26T10:38:58.468Z,15.77
2023-03-26T10:42:38.612Z,14.88
2023-03-26T10:45:59.314Z,14.30
2023-03-26T10:49:33.900Z,14.35
2023-03-26T10:52:43.322Z,14.89
2023-03-26T10:55:47.437Z,15.37
2023-03-26T10:58:50.404Z,15.54
2023-03-26T11:02:29.467Z,16.87
2023-03-26T11:05:50.916Z,17.36
2023-03-26T11:08:56.345Z,17.86
2023-03-26T11:12:01.711Z,17.56
2023-03-26T11:15:07.358Z,17.17
2023-03-26T11:18:18.776Z,16.95
2023-03-26T11:21:32.632Z,16.64
2023-03-26T11:25:12.573Z,16.77
2023-03-26T11:28:20.924Z,16.54
2023-03-26T11:31:23.167Z,16.66
2023-03-26T11:34:43.358Z,16.82
2023-03-26T11:37:57.098Z,16.83
2023-03-26T11:41:00.485Z,16.53
2023-03-26T11:44:24.486Z,16.10
2023-03-26T11:47:40.914Z,16.39
2023-03-26T11:50:47.173Z,16.99
2023-03-26T11:53:49.624Z,17.75
2023-03-26T11:57:04.525Z,17.27
2023-03-26T12:00:18.359Z,17.74
2023-03-26T12:03:20.991Z,18.32
2023-03-26T12:06:27.476Z,18.79
2023-03-26T12:09:29.849Z,18.70
2023-03-26T12:12:42.287Z,18.35
2023-03-26T12:15:44.771Z,18.18
2023-03-26T12:18:58.875Z,17.97
2023-03-26T12:22:01.259Z,18.01
2023-03-26T12:25:18.644Z,17.98
2023-03-26T12:28:21.530Z,17.84
2023-03-26T12:31:26.646Z,17.49
2023-03-26T12:34:34.864Z,17.73
2023-03-26T12:37:38.762Z,18.01
2023-03-26T12:40:42.761Z,18.37
2023-03-26T12:43:51.801Z,18.95
2023-03-26T12:47:59.033Z,19.40
2023-03-26T12:51:01.978Z,19.64
2023-03-26T12:54:17.445Z,19.99
2023-03-26T12:57:25.325Z,19.68
2023-03-26T13:00:45.785Z,19.94
2023-03-26T13:04:00.509Z,19.71
2023-03-26T13:07:28.940Z,19.93
2023-03-26T13:10:53.084Z,19.38
2023-03-26T13:13:58.668Z,18.90
2023-03-26T13:17:22.864Z,18.68
2023-03-26T13:20:33.124Z,18.40
2023-03-26T13:23:41.460Z,18.71
2023-03-26T13:27:03.767Z,18.59
2023-03-26T13:30:19.522Z,18.75
2023-03-26T13:33:50.449Z,18.26
2023-03-26T13:37:27.523Z,17.96
2023-03-26T13:41:00.362Z,17.91
2023-03-26T13:44:02.661Z,18.30
2023-03-26T13:47:25.873Z,18.47
2023-03-26T13:50:36.126Z,18.56
2023-03-26T13:53:55.800Z,18.24
2023-03-26T13:57:10.022Z,18.26
2023-03-26T14:00:16.565Z,18.21
2023-03-26T14:03:33.542Z,18.17
2023-03-26T14:06:46.977Z,18.18
2023-03-26T14:10:02.106Z,18.32
2023-03-26T14:13:10.429Z,18.36
2023-03-26T14:16:12.921Z,18.44
2023-03-26T14:19:32.286Z,18.25
2023-03-26T14:23:02.929Z,18.26
2023-03-26T14:26:37.524Z,18.16
2023-03-26T14:30:05.040Z,18.05
2023-03-26T14:33:27.913Z,18.09
2023-03-26T14:36:53.341Z,17.91
2023-03-26T14:40:15.180Z,18.07
2023-03-26T14:44:11.986Z,18.12
2023-03-26T14:47:21.823Z,18.14
2023-03-26T14:50:55.866Z,17.99
2023-03-26T14:54:18.309Z,17.88
2023-03-26T14:57:36.290Z,17.88
2023-03-26T15:00:50.780Z,17.73
2023-03-26T15:04:08.170Z,17.65
2023-03-26T15:07:37.024Z,17.59
2023-03-26T15:10:47.088Z,17.59
2023-03-26T15:14:19.471Z,17.62
2023-03-26T15:17:55.819Z,17.61
2023-03-26T15:21:29.289Z,17.64
2023-03-26T15:24:58.166Z,17.69
2023-03-26T15:28:38.622Z,17.67
2023-03-26T15:32:14.807Z,17.59
2023-03-26T15:35:49.086Z,17.60
2023-03-26T15:39:16.108Z,17.48
2023-03-26T15:42:21.684Z,17.36
2023-03-26T15:45:59.452Z,17.24
2023-03-26T15:49:16.885Z,17.10
2023-03-26T15:52:24.739Z,17.01
2023-03-26T15:55:45.947Z,16.97
2023-03-26T15:58:56.818Z,16.99
2023-03-26T16:02:02.856Z,17.04
2023-03-26T16:05:32.126Z,16.91
2023-03-26T16:08:57.117Z,16.80
2023-03-26T16:12:30.211Z,16.83
2023-03-26T16:15:33.393Z,16.65
2023-03-26T16:19:20.799Z,16.69
2023-03-26T16:22:42.574Z,16.68
2023-03-26T16:26:23.869Z,16.51
2023-03-26T16:29:28.671Z,16.30
2023-03-26T16:32:40.761Z,16.29
2023-03-26T16:36:06.379Z,16.26
2023-03-26T16:39:08.876Z,16.16
2023-03-26T16:42:54.910Z,16.12
2023-03-26T16:46:34.567Z,16.03
2023-03-26T16:50:08.590Z,15.89
2023-03-26T16:53:33.544Z,15.77
2023-03-26T16:57:14.657Z,15.75
2023-03-26T17:00:30.631Z,15.68
2023-03-26T17:03:54.207Z,15.55
2023-03-26T17:07:05.705Z,15.64
2023-03-26T17:10:20.686Z,15.59
2023-03-26T17:13:38.360Z,15.61
2023-03-26T17:16:49.491Z,15.50
2023-03-26T17:19:59.725Z,15.41
2023-03-26T17:23:41.435Z,15.35
2023-03-26T17:27:16.984Z,15.37
2023-03-26T17:30:49.419Z,15.30
2023-03-26T17:33:51.872Z,15.32
2023-03-26T17:36:58.838Z,15.39
2023-03-26T17:40:01.536Z,15.35
2023-03-26T17:43:09.912Z,15.34
2023-03-26T17:46:33.116Z,15.37
2023-03-26T17:49:36.575Z,15.17
2023-03-26T17:52:41.805Z,15.28
2023-03-26T17:55:46.116Z,15.27
2023-03-26T17:58:52.695Z,15.22
2023-03-26T18:01:58.036Z,15.20
2023-03-26T18:05:00.988Z,15.24
2023-03-26T18:08:13.543Z,15.21
2023-03-26T18:11:43.687Z,15.34
2023-03-26T18:15:02.550Z,15.34
2023-03-26T18:18:18.173Z,15.29
2023-03-26T18:21:30.831Z,15.38
2023-03-26T18:24:37.324Z,15.35
2023-03-26T18:27:41.035Z,15.30
2023-03-26T18:30:48.890Z,15.35
2023-03-26T18:33:56.973Z,15.32
2023-03-26T18:37:11.427Z,15.42
2023-03-26T18:40:20.329Z,15.30
2023-03-26T18:43:34.378Z,15.22
2023-03-26T18:46:37.412Z,15.08
2023-03-26T18:49:45.964Z,15.14
2023-03-26T18:52:48.377Z,15.01
2023-03-26T18:55:51.913Z,15.20
2023-03-26T18:58:57.894Z,15.09
2023-03-26T19:02:04.367Z,15.10
2023-03-26T19:05:07.757Z,15.11
2023-03-26T19:08:10.453Z,14.90
2023-03-26T19:11:16.332Z,15.04
2023-03-26T19:14:20.192Z,15.12
2023-03-26T19:17:24.117Z,15.01
2023-03-26T19:20:29.324Z,14.96
2023-03-26T19:23:40.045Z,15.05
2023-03-26T19:26:42.755Z,15.09
2023-03-26T19:29:45.075Z,15.02
2023-03-26T19:32:53.496Z,15.11
2023-03-26T19:36:15.081Z,14.95
2023-03-26T19:39:24.280Z,15.07
2023-03-26T19:42:44.078Z,15.15
2023-03-26T19:45:59.573Z,15.03
2023-03-26T19:49:04.712Z,14.99
2023-03-26T19:52:13.140Z,15.02
2023-03-26T19:55:22.701Z,14.99
2023-03-26T19:58:28.121Z,14.93
2023-03-26T20:01:30.782Z,14.77
2023-03-26T20:04:33.112Z,14.65
2023-03-26T20:07:39.477Z,14.45
2023-03-26T20:10:42.721Z,14.30
2023-03-26T20:13:45.132Z,14.35
2023-03-26T20:16:47.562Z,14.42
2023-03-26T20:19:49.967Z,14.33
2023-03-26T20:22:56.249Z,14.25
2023-03-26T20:25:58.768Z,14.36
2023-03-26T20:29:01.054Z,14.42
2023-03-26T20:32:06.467Z,14.33
2023-03-26T20:35:16.324Z,14.34
2023-03-26T20:38:19.966Z,14.20
2023-03-26T20:41:24.544Z,14.18
2023-03-26T20:44:27.375Z,14.36
2023-03-26T20:47:29.712Z,14.28
2023-03-26T20:50:35.745Z,14.22
2023-03-26T20:53:38.293Z,14.23
2023-03-26T20:56:41.727Z,14.27
2023-03-26T20:59:45.005Z,14.25
2023-03-26T21:02:47.924Z,14.34
2023-03-26T21:05:52.443Z,14.28
2023-03-26T21:08:54.979Z,14.12
2023-03-26T21:12:06.382Z,14.23
2023-03-26T21:15:22.380Z,14.21
2023-03-26T21:18:26.196Z,14.11
2023-03-26T21:21:37.660Z,14.15
2023-03-26T21:24:40.071Z,14.09
2023-03-26T21:27:45.338Z,14.04
2023-03-26T21:30:47.939Z,13.92
2023-03-26T21:33:50.733Z,13.97
2023-03-26T21:36:53.422Z,13.99
2023-03-26T21:39:56.055Z,13.94
2023-03-26T21:42:58.712Z,13.88
2023-03-26T21:46:01.421Z,13.73
2023-03-26T21:49:04.232Z,13.71
2023-03-26T21:52:07.193Z,13.52
2023-03-26T21:55:11.587Z,13.37
2023-03-26T21:58:35.871Z,13.31
2023-03-26T22:01:49.870Z,13.00
2023-03-26T22:04:57.379Z,13.11
2023-03-26T22:08:04.887Z,12.77
2023-03-26T22:11:09.650Z,12.92
2023-03-26T22:14:13.420Z,13.05
2023-03-26T22:17:15.698Z,12.99
2023-03-26T22:20:19.625Z,13.02
2023-03-26T22:23:22.292Z,12.89
2023-03-26T22:26:25.105Z,12.89
2023-03-26T22:29:27.573Z,12.82
2023-03-26T22:32:32.830Z,12.77
2023-03-26T22:35:35.425Z,12.79
2023-03-26T22:38:37.750Z,12.68
2023-03-26T22:41:40.049Z,12.78
2023-03-26T22:44:42.381Z,12.84
2023-03-26T22:47:45.175Z,12.71
2023-03-26T22:50:58.422Z,12.60
2023-03-26T22:54:00.753Z,12.55
2023-03-26T22:57:03.859Z,12.75
2023-03-26T23:00:14.762Z,12.72
2023-03-26T23:03:17.720Z,12.83
2023-03-26T23:06:21.263Z,12.79
2023-03-26T23:09:24.960Z,12.87
2023-03-26T23:12:27.380Z,12.83
2023-03-26T23:15:30.539Z,12.56
2023-03-26T23:18:33.218Z,12.47
2023-03-26T23:21:36.737Z,12.41
2023-03-26T23:24:39.870Z,12.25
2023-03-26T23:27:42.281Z,12.29
2023-03-26T23:30:47.747Z,12.47
2023-03-26T23:33:50.498Z,12.39
2023-03-26T23:36:53.889Z,12.27
2023-03-26T23:39:56.157Z,12.26
2023-03-26T23:42:58.464Z,12.09
2023-03-26T23:46:00.782Z,11.92
2023-03-26T23:49:03.828Z,11.99
2023-03-26T23:52:06.417Z,12.01
2023-03-26T23:55:09.058Z,12.04
2023-03-26T23:58:11.370Z,12.05
